Time;durP1;ratioP1;P1;durP2;ratioP2;P2;SDS_P1;SDS_P2;PMS_P1;PMS_P2;Temp;Humidity;BMP_temperature;BMP_pressure;BME280_temperature;BME280_humidity;BME280_pressure;Samples;Min_cycle;Max_cycle;Signal;HPM_P1;HPM_P2
2022/07/31 00:02:08;;;;;;;9.18;5.68;;;;;;;19.95;92.91;94450.25;5004031;28;20260;-75
2022/07/31 00:04:35;;;;;;;11.90;6.47;;;;;;;20.04;91.97;94448.69;5004188;28;20769;-75
2022/07/31 00:07:02;;;;;;;13.23;9.40;;;;;;;20.14;91.65;94449.84;4998397;28;20227;-75
2022/07/31 00:09:29;;;;;;;11.38;8.43;;;;;;;19.96;91.55;94449.84;4997783;28;20268;-75
2022/07/31 00:11:56;;;;;;;13.85;8.35;;;;;;;19.98;92.44;94446.69;5002508;28;20550;-76
2022/07/31 00:14:22;;;;;;;10.55;7.72;;;;;;;19.96;91.48;94435.28;5004441;28;20773;-75
2022/07/31 00:16:49;;;;;;;8.27;5.45;;;;;;;19.88;92.15;94443.56;4999588;28;20611;-75
2022/07/31 00:19:17;;;;;;;8.15;5.53;;;;;;;19.66;91.87;94439.22;4998187;28;20205;-75
2022/07/31 00:21:44;;;;;;;7.95;5.03;;;;;;;19.66;91.62;94461.19;5003444;28;20715;-75
2022/07/31 00:24:11;;;;;;;9.68;5.45;;;;;;;19.66;91.93;94452.97;5004032;28;20658;-75
2022/07/31 00:26:39;;;;;;;10.27;5.88;;;;;;;19.75;91.03;94467.09;4999043;28;20298;-75
2022/07/31 00:29:06;;;;;;;8.50;5.65;;;;;;;19.79;90.30;94470.66;4997773;28;20601;-75
2022/07/31 00:31:33;;;;;;;7.88;5.40;;;;;;;19.80;90.75;94466.72;5002375;28;20293;-75
2022/07/31 00:34:00;;;;;;;11.40;8.40;;;;;;;19.85;90.19;94473.78;5007205;28;20593;-75
2022/07/31 00:36:28;;;;;;;13.02;8.93;;;;;;;19.78;90.27;94469.06;5002168;28;20213;-75
2022/07/31 00:38:55;;;;;;;10.00;5.72;;;;;;;19.65;91.50;94470.63;5007053;28;20290;-75
2022/07/31 00:41:22;;;;;;;11.73;6.13;;;;;;;19.52;92.04;94477.66;5009942;28;20197;-75
2022/07/31 00:43:49;;;;;;;8.60;5.00;;;;;;;19.41;92.53;94476.78;5015003;28;20201;-75
2022/07/31 00:46:16;;;;;;;10.35;5.60;;;;;;;19.42;92.41;94472.84;5011542;28;20209;-76
2022/07/31 00:48:42;;;;;;;11.52;6.05;;;;;;;19.41;92.44;94476.78;5011302;28;20241;-75
2022/07/31 00:51:09;;;;;;;11.68;5.28;;;;;;;19.29;92.57;94468.88;5011113;28;20205;-76
2022/07/31 00:53:37;;;;;;;7.20;5.38;;;;;;;19.20;92.55;94472.00;5010574;28;20212;-75
2022/07/31 00:56:05;;;;;;;9.70;4.93;;;;;;;19.12;92.22;94471.19;5000635;28;20560;-75
2022/07/31 00:58:32;;;;;;;12.10;6.68;;;;;;;19.06;91.05;94472.72;5004756;28;20276;-75
2022/07/31 01:00:59;;;;;;;8.45;5.28;;;;;;;19.10;91.44;94476.28;5002388;28;20208;-75
2022/07/31 01:03:25;;;;;;;10.13;5.53;;;;;;;18.89;91.92;94470.66;4997714;28;20248;-75
2022/07/31 01:05:52;;;;;;;13.35;6.25;;;;;;;18.66;94.07;94476.44;4999075;28;20238;-76
2022/07/31 01:08:19;;;;;;;9.63;5.05;;;;;;;18.59;93.42;94478.31;5004897;28;20230;-75
2022/07/31 01:10:56;;;;;;;8.60;5.35;;;;;;;18.65;92.68;94474.06;5002937;28;20205;-75
2022/07/31 01:13:30;;;;;;;8.25;4.78;;;;;;;18.60;91.84;94477.16;4998281;28;20334;-76
2022/07/31 01:15:58;;;;;;;12.10;6.72;;;;;;;18.56;91.13;94488.09;4998115;28;20287;-76
2022/07/31 01:18:27;;;;;;;6.95;4.90;;;;;;;18.50;91.47;94495.09;5003050;28;20209;-75
2022/07/31 01:20:57;;;;;;;10.77;5.07;;;;;;;18.54;91.64;94484.16;5006009;28;20209;-75
2022/07/31 01:23:50;;;;;;;8.45;5.28;;;;;;;18.62;91.40;94491.28;5002363;28;20312;-75
2022/07/31 01:26:36;;;;;;;10.68;4.95;;;;;;;18.46;92.67;94478.59;5005230;28;20225;-75
2022/07/31 01:29:14;;;;;;;11.65;4.75;;;;;;;18.26;94.41;94480.03;5008654;28;20232;-75
2022/07/31 01:31:45;;;;;;;7.38;4.43;;;;;;;18.24;95.25;94492.53;5005194;28;20196;-75
2022/07/31 01:34:19;;;;;;;8.13;5.13;;;;;;;18.27;94.62;94486.31;4998303;28;20229;-75
2022/07/31 01:36:51;;;;;;;17.17;4.63;;;;;;;18.37;93.08;94474.63;5006198;28;20196;-75
2022/07/31 01:39:19;;;;;;;7.95;4.90;;;;;;;18.26;92.31;94480.03;5014831;28;20205;-75
2022/07/31 01:41:48;;;;;;;8.05;4.47;;;;;;;18.11;93.02;94483.81;5014602;28;20251;-75
2022/07/31 01:44:18;;;;;;;7.03;4.80;;;;;;;17.93;93.36;94488.34;5027188;28;20208;-75
2022/07/31 01:46:47;;;;;;;9.15;5.20;;;;;;;18.02;93.31;94478.66;5007017;28;20293;-75
2022/07/31 01:49:15;;;;;;;11.40;4.75;;;;;;;18.04;93.39;94478.28;5014820;28;20250;-75
2022/07/31 01:51:44;;;;;;;7.70;5.30;;;;;;;18.04;93.20;94470.81;5014316;28;20255;-75
2022/07/31 01:54:12;;;;;;;10.27;5.25;;;;;;;18.09;92.96;94469.69;5014339;28;20205;-75
2022/07/31 01:56:40;;;;;;;8.18;4.90;;;;;;;18.14;92.71;94463.09;5012554;28;20696;-75
2022/07/31 01:59:10;;;;;;;10.68;5.65;;;;;;;18.27;92.85;94483.56;5003547;28;20217;-75
2022/07/31 02:01:39;;;;;;;13.57;5.10;;;;;;;18.34;92.70;94470.69;5000883;28;20665;-75
2022/07/31 02:04:07;;;;;;;7.82;5.00;;;;;;;18.33;92.41;94476.53;5004688;28;20312;-75
2022/07/31 02:06:35;;;;;;;10.73;5.53;;;;;;;18.36;91.83;94476.56;4996925;28;20644;-75
2022/07/31 02:09:02;;;;;;;7.97;4.75;;;;;;;18.38;91.66;94477.00;5004673;28;20320;-75
2022/07/31 02:11:29;;;;;;;9.00;5.55;;;;;;;18.42;91.38;94483.28;5007511;28;20205;-75
2022/07/31 02:13:57;;;;;;;10.55;4.63;;;;;;;18.44;91.01;94474.69;5004075;28;20204;-75
2022/07/31 02:16:27;;;;;;;9.50;5.78;;;;;;;18.44;90.02;94469.19;5000486;28;20209;-75
2022/07/31 02:18:57;;;;;;;7.72;4.68;;;;;;;18.43;89.75;94479.38;5003773;28;20304;-75
2022/07/31 02:21:24;;;;;;;6.75;4.93;;;;;;;18.37;89.73;94475.41;5011908;28;20209;-75
2022/07/31 02:23:52;;;;;;;6.85;4.90;;;;;;;18.35;89.80;94476.94;5002368;28;20225;-76
2022/07/31 02:26:20;;;;;;;8.27;4.47;;;;;;;18.34;89.78;94476.16;5011352;28;20259;-76
2022/07/31 02:28:48;;;;;;;9.48;5.57;;;;;;;18.34;89.64;94475.38;5013446;28;20245;-75
2022/07/31 02:31:17;;;;;;;8.23;5.07;;;;;;;18.38;89.28;94477.00;5008157;28;20197;-75
2022/07/31 02:33:46;;;;;;;8.00;4.22;;;;;;;18.46;89.76;94467.63;5006291;28;20213;-75
2022/07/31 02:36:16;;;;;;;10.00;5.30;;;;;;;18.39;90.69;94478.56;5000359;28;20212;-75
2022/07/31 02:38:44;;;;;;;8.68;4.75;;;;;;;18.29;90.98;94486.72;5014024;28;20315;-75
2022/07/31 02:41:12;;;;;;;8.32;4.82;;;;;;;18.28;91.06;94482.41;5013193;28;20259;-75
2022/07/31 02:43:40;;;;;;;6.43;4.05;;;;;;;18.16;90.74;94491.72;5017779;28;20216;-74
2022/07/31 02:46:11;;;;;;;6.28;4.30;;;;;;;18.31;90.75;94492.63;5013411;28;20197;-74
2022/07/31 02:48:39;;;;;;;4.97;3.25;;;;;;;18.33;90.13;94480.06;5000243;28;20229;-76
2022/07/31 02:51:07;;;;;;;7.80;4.03;;;;;;;18.50;89.88;94489.59;5013832;28;20232;-75
2022/07/31 02:53:37;;;;;;;11.63;4.65;;;;;;;18.40;89.34;94493.84;5000385;28;20204;-75
2022/07/31 02:56:05;;;;;;;6.47;4.22;;;;;;;18.32;90.11;94494.94;5012940;28;20741;-75
2022/07/31 02:58:32;;;;;;;8.45;4.07;;;;;;;18.34;89.86;94498.09;5009504;28;20236;-75
2022/07/31 03:01:00;;;;;;;6.50;4.40;;;;;;;18.32;90.58;94494.94;5004596;28;20267;-75
2022/07/31 03:03:27;;;;;;;8.80;4.18;;;;;;;17.97;92.28;94500.13;4999779;28;20216;-75
2022/07/31 03:05:54;;;;;;;6.85;4.50;;;;;;;18.00;92.88;94499.41;5012820;28;20244;-75
2022/07/31 03:08:20;;;;;;;7.97;4.57;;;;;;;17.97;93.65;94495.44;5008864;28;20630;-75
2022/07/31 03:10:49;;;;;;;8.30;4.00;;;;;;;18.15;93.00;94490.13;5004805;28;20217;-74
2022/07/31 03:13:17;;;;;;;5.55;3.50;;;;;;;18.32;92.14;94494.94;5008338;28;20553;-74
2022/07/31 03:15:45;;;;;;;8.75;4.88;;;;;;;18.43;91.67;94489.56;5004511;28;20205;-74
2022/07/31 03:18:13;;;;;;;7.00;4.45;;;;;;;18.61;90.73;94489.69;5007862;28;20208;-74
2022/07/31 03:20:41;;;;;;;9.43;4.68;;;;;;;18.61;89.92;94500.69;5005485;28;20640;-74
2022/07/31 03:23:10;;;;;;;9.80;5.07;;;;;;;18.47;91.27;94504.88;5012698;28;20225;-73
2022/07/31 03:25:38;;;;;;;11.05;5.18;;;;;;;18.50;91.82;94506.06;5000538;28;20233;-75
2022/07/31 03:28:07;;;;;;;10.85;4.97;;;;;;;18.57;91.66;94499.84;5006240;28;20225;-74
2022/07/31 03:30:34;;;;;;;9.15;5.28;;;;;;;18.50;91.92;94500.59;5005641;28;20209;-74
2022/07/31 03:33:02;;;;;;;13.55;5.15;;;;;;;18.42;92.14;94505.25;4999027;28;20615;-74
2022/07/31 03:35:29;;;;;;;9.73;5.47;;;;;;;18.63;92.04;94495.59;4999496;28;20202;-75
2022/07/31 03:37:56;;;;;;;11.25;4.72;;;;;;;18.91;91.25;94504.00;5001127;28;20267;-74
2022/07/31 03:40:23;;;;;;;8.45;4.88;;;;;;;18.84;91.09;94504.00;5012569;28;20209;-74
2022/07/31 03:42:51;;;;;;;7.75;5.35;;;;;;;18.46;92.61;94511.53;5012794;28;20200;-75
2022/07/31 03:45:21;;;;;;;7.97;4.50;;;;;;;18.23;94.08;94519.19;5016281;28;20202;-76
2022/07/31 03:47:48;;;;;;;14.63;5.38;;;;;;;18.01;95.41;94518.22;5011594;28;20255;-74
2022/07/31 03:50:16;;;;;;;9.70;6.10;;;;;;;18.19;95.40;94523.03;5009437;28;20213;-74
2022/07/31 03:52:45;;;;;;;9.73;5.40;;;;;;;18.11;95.05;94517.50;5002799;28;20211;-76
2022/07/31 03:55:12;;;;;;;7.35;4.60;;;;;;;18.13;95.68;94519.88;4999841;28;20263;-75
2022/07/31 03:57:41;;;;;;;10.57;6.32;;;;;;;18.03;96.32;94515.09;5002185;28;20260;-73
2022/07/31 04:00:09;;;;;;;8.30;5.38;;;;;;;18.02;96.67;94535.44;5004915;28;20208;-75
2022/07/31 04:02:37;;;;;;;7.45;5.28;;;;;;;17.94;97.95;94531.03;5003274;28;20196;-76
2022/07/31 04:05:05;;;;;;;5.20;3.40;;;;;;;17.68;98.67;94530.00;4999044;28;20785;-77
2022/07/31 04:07:32;;;;;;;12.20;6.65;;;;;;;17.63;98.72;94527.56;5001618;28;20202;-76
2022/07/31 04:09:59;;;;;;;11.50;5.65;;;;;;;17.70;97.54;94540.59;5009782;28;20610;-77
2022/07/31 04:12:25;;;;;;;6.63;5.28;;;;;;;17.70;96.88;94535.88;5001059;28;20206;-77
2022/07/31 04:14:52;;;;;;;8.38;5.05;;;;;;;17.64;96.76;94536.59;5005085;28;20201;-77
2022/07/31 04:17:19;;;;;;;7.15;4.82;;;;;;;17.60;96.38;94531.06;5000198;28;20209;-77
2022/07/31 04:19:48;;;;;;;8.13;5.20;;;;;;;17.66;95.94;94540.53;5002978;28;20281;-77
2022/07/31 04:22:15;;;;;;;5.93;3.53;;;;;;;17.68;96.45;94537.41;5004562;28;20700;-77
2022/07/31 04:24:42;;;;;;;7.03;4.05;;;;;;;17.96;95.46;94536.94;5004455;28;20711;-77
2022/07/31 04:27:09;;;;;;;11.50;5.57;;;;;;;17.98;94.70;94529.91;5010405;28;20201;-77
2022/07/31 04:29:36;;;;;;;8.45;5.28;;;;;;;18.08;94.60;94531.19;5007799;28;20692;-77
2022/07/31 04:32:03;;;;;;;11.27;4.50;;;;;;;18.45;92.91;94509.16;5008511;28;20204;-75
2022/07/31 04:34:30;;;;;;;9.73;5.50;;;;;;;19.02;91.00;94510.34;5002345;28;20201;-75
2022/07/31 04:36:58;;;;;;;8.55;4.70;;;;;;;19.88;86.59;94506.78;5001864;28;20252;-76
2022/07/31 04:39:25;;;;;;;8.90;5.35;;;;;;;20.24;84.05;94499.38;5003199;28;20285;-77
2022/07/31 04:41:52;;;;;;;8.93;5.85;;;;;;;21.05;81.23;94494.19;5003559;28;20256;-75
2022/07/31 04:44:19;;;;;;;10.07;7.38;;;;;;;21.51;78.82;94505.09;5010809;28;20607;-77
2022/07/31 04:46:46;;;;;;;10.23;6.68;;;;;;;21.87;76.59;94500.97;5004249;28;20198;-77
2022/07/31 04:49:13;;;;;;;11.57;7.40;;;;;;;21.63;77.61;94504.66;5002560;28;20222;-77
2022/07/31 04:51:41;;;;;;;10.50;7.10;;;;;;;22.29;74.99;94499.16;5002602;28;20194;-77
2022/07/31 04:54:09;;;;;;;6.38;4.25;;;;;;;21.74;75.20;94505.38;5001487;28;20209;-74
2022/07/31 04:56:40;;;;;;;7.28;4.90;;;;;;;21.32;77.46;94497.31;4997742;28;20201;-76
2022/07/31 04:59:09;;;;;;;8.45;6.43;;;;;;;21.17;77.38;94502.84;5001716;28;20194;-75
2022/07/31 05:01:37;;;;;;;7.40;5.80;;;;;;;20.81;78.41;94506.84;5001519;28;20256;-75
2022/07/31 05:04:04;;;;;;;6.07;4.13;;;;;;;20.58;79.45;94513.56;5000705;28;20233;-75
2022/07/31 05:06:35;;;;;;;6.95;4.05;;;;;;;20.45;80.23;94517.88;5005075;28;20197;-76
2022/07/31 05:09:04;;;;;;;8.43;6.20;;;;;;;21.02;78.09;94517.84;5003079;28;20237;-76
2022/07/31 05:11:33;;;;;;;7.60;6.25;;;;;;;20.94;77.95;94527.28;5001477;28;20637;-75
2022/07/31 05:14:01;;;;;;;6.68;5.57;;;;;;;20.65;79.14;94521.00;5002214;28;20205;-75
2022/07/31 05:16:29;;;;;;;8.10;5.53;;;;;;;20.26;80.40;94520.19;5001896;28;20598;-76
2022/07/31 05:18:56;;;;;;;7.15;5.40;;;;;;;20.37;80.17;94527.31;5000625;28;20284;-75
2022/07/31 05:21:25;;;;;;;8.40;5.80;;;;;;;20.66;80.50;94517.09;5004754;28;20217;-74
2022/07/31 05:23:53;;;;;;;9.30;5.95;;;;;;;20.77;79.27;94517.09;4999567;28;20217;-73
2022/07/31 05:26:21;;;;;;;5.53;3.28;;;;;;;20.66;77.50;94517.09;5000018;28;20201;-76
2022/07/31 05:28:49;;;;;;;4.68;3.55;;;;;;;20.43;78.65;94523.00;4999411;28;20225;-73
2022/07/31 05:31:17;;;;;;;5.47;2.95;;;;;;;20.51;78.15;94521.03;4997799;28;20201;-73
2022/07/31 05:33:44;;;;;;;5.85;4.80;;;;;;;20.56;77.93;94524.19;5003227;28;20194;-74
2022/07/31 05:36:11;;;;;;;8.20;5.88;;;;;;;20.37;78.31;94513.53;5001235;28;20727;-73
2022/07/31 05:38:38;;;;;;;5.18;3.33;;;;;;;20.54;78.23;94515.53;5001551;28;20205;-73
2022/07/31 05:41:05;;;;;;;5.47;3.47;;;;;;;20.45;78.36;94509.63;5001546;28;20201;-73
2022/07/31 05:43:32;;;;;;;5.82;4.18;;;;;;;20.42;78.24;94518.66;5004145;28;20280;-75
2022/07/31 05:46:01;;;;;;;6.80;4.22;;;;;;;20.82;77.12;94513.94;5002163;28;20723;-75
2022/07/31 05:48:29;;;;;;;6.18;4.13;;;;;;;21.13;76.07;94513.09;4999904;28;20683;-73
2022/07/31 05:50:55;;;;;;;6.38;4.22;;;;;;;21.57;74.40;94515.34;5001831;28;20201;-73
2022/07/31 05:53:24;;;;;;;9.68;5.10;;;;;;;21.53;72.87;94508.25;5004209;28;20664;-73
2022/07/31 05:55:51;;;;;;;5.03;3.45;;;;;;;20.89;74.41;94508.41;5003341;28;20198;-74
2022/07/31 05:58:19;;;;;;;10.38;5.18;;;;;;;20.99;74.86;94510.38;5002377;28;20201;-74
2022/07/31 06:00:49;;;;;;;6.07;3.92;;;;;;;22.39;70.35;94508.56;5001464;28;20244;-73
2022/07/31 06:03:23;;;;;;;7.53;4.07;;;;;;;25.12;62.09;94494.09;5001540;28;20207;-73
2022/07/31 06:05:50;;;;;;;10.15;6.18;;;;;;;26.95;56.29;94493.28;5000268;28;20225;-73
2022/07/31 06:08:17;;;;;;;5.18;3.63;;;;;;;25.96;56.59;94493.63;5002454;28;20220;-73
2022/07/31 06:10:44;;;;;;;6.40;4.05;;;;;;;24.59;61.72;94506.84;5004519;28;20225;-73
2022/07/31 06:13:11;;;;;;;9.27;6.63;;;;;;;24.09;63.14;94501.22;5011039;28;20259;-74
2022/07/31 06:15:38;;;;;;;8.95;6.25;;;;;;;24.50;61.73;94497.47;5013900;28;20205;-74
2022/07/31 06:18:05;;;;;;;8.88;5.93;;;;;;;24.44;61.68;94488.88;5000855;28;20615;-74
2022/07/31 06:20:34;;;;;;;8.13;5.78;;;;;;;24.29;62.39;94493.06;5013861;28;20267;-75
2022/07/31 06:23:01;;;;;;;6.50;4.72;;;;;;;23.71;63.92;94495.03;5000380;28;20761;-75
2022/07/31 06:25:28;;;;;;;7.82;4.65;;;;;;;23.76;63.36;94483.53;5001376;28;20206;-79
2022/07/31 06:27:55;;;;;;;9.82;6.97;;;;;;;23.64;64.44;94492.38;5006598;28;20210;-76
2022/07/31 06:30:22;;;;;;;10.85;7.13;;;;;;;23.96;63.99;94505.75;5006018;28;20319;-73
2022/07/31 06:32:49;;;;;;;10.38;7.15;;;;;;;25.18;61.13;94495.16;5000361;28;20224;-74
2022/07/31 06:35:15;;;;;;;7.88;5.60;;;;;;;24.23;61.79;94500.28;5001612;28;20210;-70
2022/07/31 06:37:43;;;;;;;11.57;7.28;;;;;;;24.02;63.12;94493.81;5005850;28;20559;-74
2022/07/31 06:40:12;;;;;;;11.05;7.15;;;;;;;25.31;60.04;94485.00;5012372;28;20213;-72
2022/07/31 06:42:39;;;;;;;9.75;7.03;;;;;;;25.42;58.78;94487.56;5004178;28;20197;-72
2022/07/31 06:45:07;;;;;;;12.23;7.57;;;;;;;25.72;58.86;94481.03;5004518;28;20259;-72
2022/07/31 06:47:34;;;;;;;11.95;7.97;;;;;;;26.12;57.73;94488.06;5003420;28;20656;-74
2022/07/31 06:50:01;;;;;;;10.27;7.20;;;;;;;24.98;60.95;94491.56;5001391;28;20248;-73
2022/07/31 06:52:27;;;;;;;12.15;8.30;;;;;;;24.01;63.70;94483.97;5006809;28;20727;-75
2022/07/31 06:54:55;;;;;;;10.18;7.13;;;;;;;23.28;65.44;94495.53;5003460;28;20201;-78
2022/07/31 06:57:22;;;;;;;10.02;7.03;;;;;;;23.94;63.80;94492.34;5003856;28;20206;-76
2022/07/31 06:59:49;;;;;;;9.95;7.90;;;;;;;24.16;63.56;94497.59;5001743;28;20205;-75
2022/07/31 07:02:16;;;;;;;10.95;8.10;;;;;;;23.45;66.17;94506.78;5004657;28;20204;-75
2022/07/31 07:04:43;;;;;;;10.95;8.48;;;;;;;22.95;67.47;94501.81;5004204;28;20225;-76
2022/07/31 07:07:10;;;;;;;12.23;7.88;;;;;;;23.76;66.30;94510.41;5004520;28;20197;-75
2022/07/31 07:09:37;;;;;;;14.00;8.55;;;;;;;23.83;65.42;94502.78;5004043;28;20221;-78
2022/07/31 07:12:06;;;;;;;9.80;6.70;;;;;;;24.00;64.27;94510.06;5001492;28;20198;-75
2022/07/31 07:14:32;;;;;;;17.25;9.15;;;;;;;24.00;64.57;94512.84;5001454;28;20730;-79
2022/07/31 07:17:03;;;;;;;10.38;7.80;;;;;;;23.51;65.77;94505.16;5003744;28;20251;-75
2022/07/31 07:19:30;;;;;;;11.60;8.13;;;;;;;25.14;62.39;94503.56;5004610;28;20229;-73
2022/07/31 07:21:56;;;;;;;13.75;9.30;;;;;;;25.93;58.54;94502.81;5005821;28;20695;-73
2022/07/31 07:24:23;;;;;;;7.60;5.10;;;;;;;25.34;59.59;94506.34;5007513;28;20217;-78
2022/07/31 07:26:50;;;;;;;9.32;6.10;;;;;;;25.33;60.55;94504.75;5001652;28;20198;-74
2022/07/31 07:29:18;;;;;;;14.35;8.75;;;;;;;25.52;60.79;94494.13;5004680;28;20620;-73
2022/07/31 07:31:45;;;;;;;12.13;8.00;;;;;;;26.45;57.52;94504.84;5003072;28;20193;-74
2022/07/31 07:34:12;;;;;;;14.25;8.35;;;;;;;26.95;56.92;94500.84;5004414;28;20304;-73
2022/07/31 07:36:38;;;;;;;12.43;7.90;;;;;;;25.98;58.53;94510.59;5018773;28;20597;-79
2022/07/31 07:39:05;;;;;;;11.48;7.68;;;;;;;24.74;62.04;94513.69;5013639;28;20200;-75
2022/07/31 07:41:32;;;;;;;11.93;8.30;;;;;;;25.59;60.81;94514.16;5001849;28;20348;-75
2022/07/31 07:43:59;;;;;;;9.70;7.47;;;;;;;25.85;59.62;94506.91;5018988;28;20228;-79
2022/07/31 07:46:27;;;;;;;12.63;8.60;;;;;;;26.50;57.98;94505.09;5003239;28;20202;-74
2022/07/31 07:48:54;;;;;;;11.65;7.78;;;;;;;26.13;58.75;94495.19;5004002;28;20239;-75
2022/07/31 07:51:21;;;;;;;11.95;8.57;;;;;;;25.61;59.55;94508.19;5002344;28;20654;-75
2022/07/31 07:53:48;;;;;;;12.15;8.23;;;;;;;25.93;59.81;94500.03;5004238;28;20671;-73
2022/07/31 07:56:15;;;;;;;13.25;8.50;;;;;;;25.66;59.55;94494.63;5003314;28;20253;-75
2022/07/31 07:58:42;;;;;;;11.90;8.90;;;;;;;25.46;60.64;94516.00;5005749;28;20288;-75
2022/07/31 08:01:09;;;;;;;10.38;7.25;;;;;;;25.28;61.10;94513.59;5000241;28;20208;-74
2022/07/31 08:03:38;;;;;;;11.30;7.65;;;;;;;24.82;62.90;94516.38;5001441;28;20198;-73
2022/07/31 08:06:04;;;;;;;9.40;6.13;;;;;;;24.68;62.52;94520.16;5001914;28;20209;-76
2022/07/31 08:08:31;;;;;;;9.63;6.82;;;;;;;25.17;61.94;94504.66;5005545;28;20267;-74
2022/07/31 08:10:59;;;;;;;7.15;4.78;;;;;;;25.49;60.30;94507.63;5000771;28;20320;-74
2022/07/31 08:13:26;;;;;;;7.85;5.47;;;;;;;25.76;59.55;94521.38;5007611;28;20210;-74
2022/07/31 08:15:53;;;;;;;8.18;5.15;;;;;;;24.97;61.54;94532.38;5002244;28;20249;-79
2022/07/31 08:18:20;;;;;;;8.38;6.07;;;;;;;25.25;61.90;94536.63;5002947;28;20193;-79
2022/07/31 08:20:48;;;;;;;11.50;6.45;;;;;;;25.65;60.70;94529.16;5001818;28;20561;-74
2022/07/31 08:23:15;;;;;;;9.95;5.80;;;;;;;25.75;60.43;94530.91;4999728;28;20263;-74
2022/07/31 08:25:42;;;;;;;8.93;6.43;;;;;;;24.90;62.40;94537.19;4999724;28;20243;-74
2022/07/31 08:28:08;;;;;;;9.30;6.47;;;;;;;24.83;62.93;94543.66;5000843;28;20205;-76
2022/07/31 08:30:35;;;;;;;9.93;6.32;;;;;;;24.23;64.26;94542.59;5000516;28;20412;-74
2022/07/31 08:33:02;;;;;;;8.73;5.45;;;;;;;23.95;65.24;94540.97;5000567;28;20287;-73
2022/07/31 08:35:29;;;;;;;8.52;5.70;;;;;;;24.02;65.78;94529.81;4999075;28;20564;-74
2022/07/31 08:37:57;;;;;;;8.80;5.90;;;;;;;24.38;64.51;94545.94;5002508;28;20202;-75
2022/07/31 08:40:24;;;;;;;7.68;5.43;;;;;;;24.98;62.88;94538.69;5000202;28;20538;-74
2022/07/31 08:42:51;;;;;;;6.28;4.95;;;;;;;24.73;62.81;94545.41;5002635;28;20190;-74
2022/07/31 08:45:18;;;;;;;8.65;5.72;;;;;;;24.18;64.92;94548.56;5002360;28;20275;-75
2022/07/31 08:47:47;;;;;;;10.18;5.95;;;;;;;24.34;64.51;94545.19;5000712;28;20719;-74
2022/07/31 08:50:15;;;;;;;7.90;5.57;;;;;;;23.75;66.41;94540.03;5001805;28;20259;-73
2022/07/31 08:52:44;;;;;;;7.97;5.47;;;;;;;24.64;65.26;94536.81;5001882;28;20272;-74
2022/07/31 08:55:13;;;;;;;7.85;5.70;;;;;;;24.82;63.49;94539.31;5003710;28;20222;-73
2022/07/31 08:57:41;;;;;;;10.30;5.57;;;;;;;23.61;66.36;94534.69;5002079;28;20531;-73
2022/07/31 09:00:11;;;;;;;8.65;5.82;;;;;;;23.88;65.87;94529.22;5001243;28;20200;-78
2022/07/31 09:02:40;;;;;;;9.07;6.03;;;;;;;24.35;65.26;94535.69;5002462;28;20277;-74
2022/07/31 09:05:07;;;;;;;8.45;5.95;;;;;;;23.77;65.62;94545.94;5002459;28;20228;-73
2022/07/31 09:07:34;;;;;;;8.75;5.97;;;;;;;24.12;64.21;94539.16;4997510;28;20193;-74
2022/07/31 09:10:01;;;;;;;9.70;6.18;;;;;;;24.64;63.60;94536.81;5009621;28;20282;-74
2022/07/31 09:12:32;;;;;;;9.35;6.05;;;;;;;25.65;60.52;94525.59;5010997;28;20219;-74
2022/07/31 09:14:59;;;;;;;9.10;6.72;;;;;;;25.19;62.21;94543.84;5010539;28;20710;-74
2022/07/31 09:17:33;;;;;;;9.93;7.03;;;;;;;24.85;61.33;94546.00;4997623;28;20220;-77
2022/07/31 09:20:00;;;;;;;9.70;6.70;;;;;;;24.82;62.43;94544.84;5008318;28;20287;-74
2022/07/31 09:22:29;;;;;;;10.15;6.80;;;;;;;24.75;61.84;94537.44;5010427;28;20288;-77
2022/07/31 09:25:10;;;;;;;10.45;7.63;;;;;;;24.73;62.31;94537.09;5002442;28;20767;-73
2022/07/31 09:27:39;;;;;;;9.70;6.72;;;;;;;24.24;62.95;94535.06;5002009;28;20200;-74
2022/07/31 09:30:07;;;;;;;10.73;6.60;;;;;;;24.38;63.33;94540.41;5003331;28;20560;-76
2022/07/31 09:32:34;;;;;;;11.85;7.53;;;;;;;24.50;62.61;94525.97;5003373;28;20197;-73
2022/07/31 09:35:09;;;;;;;13.85;9.20;;;;;;;25.92;59.73;94512.34;4998427;28;20197;-73
2022/07/31 09:37:36;;;;;;;13.82;8.95;;;;;;;25.95;58.72;94517.03;5008329;28;20204;-73
2022/07/31 09:40:05;;;;;;;15.02;8.90;;;;;;;25.81;57.44;94518.13;5010339;28;20259;-73
2022/07/31 09:42:39;;;;;;;12.68;8.60;;;;;;;26.47;56.47;94507.97;5008783;28;20210;-74
2022/07/31 09:45:20;;;;;;;12.38;7.97;;;;;;;26.26;55.65;94511.19;5017478;28;20197;-76
2022/07/31 09:47:48;;;;;;;12.30;8.38;;;;;;;25.73;56.15;94511.13;5014249;28;20204;-74
2022/07/31 09:50:23;;;;;;;12.75;9.48;;;;;;;25.63;54.56;94511.34;5012656;28;20654;-74
2022/07/31 09:52:58;;;;;;;11.10;8.10;;;;;;;25.69;55.25;94509.66;5008306;28;20649;-73
2022/07/31 09:55:25;;;;;;;10.90;7.72;;;;;;;25.73;54.47;94504.78;5001526;28;20203;-73
2022/07/31 09:57:55;;;;;;;11.95;8.65;;;;;;;25.65;53.48;94503.38;5006389;28;20688;-78
2022/07/31 10:00:23;;;;;;;13.23;9.55;;;;;;;25.38;56.58;94512.59;5004098;28;20530;-73
2022/07/31 10:02:52;;;;;;;13.80;9.18;;;;;;;26.04;55.65;94511.66;5014386;28;20204;-73
2022/07/31 10:05:22;;;;;;;13.45;9.23;;;;;;;25.52;56.30;94516.31;5012926;28;20236;-73
2022/07/31 10:07:50;;;;;;;11.95;8.27;;;;;;;25.24;56.53;94501.78;5000840;28;20206;-74
2022/07/31 10:10:17;;;;;;;9.65;7.10;;;;;;;24.55;57.99;94517.19;5006433;28;20233;-73
2022/07/31 10:12:49;;;;;;;11.88;8.48;;;;;;;23.99;59.98;94513.25;5010535;28;20200;-73
2022/07/31 10:15:18;;;;;;;13.73;8.30;;;;;;;24.38;58.67;94510.72;5013543;28;20201;-72
2022/07/31 10:17:48;;;;;;;12.25;8.55;;;;;;;24.26;59.33;94514.06;5007224;28;20689;-75
2022/07/31 10:20:20;;;;;;;12.60;8.55;;;;;;;24.98;59.00;94495.13;5013609;28;20220;-75
2022/07/31 10:22:49;;;;;;;9.50;6.38;;;;;;;24.89;57.88;94502.38;5013822;28;20323;-73
2022/07/31 10:25:24;;;;;;;12.70;9.52;;;;;;;25.54;55.65;94491.69;5013401;28;20209;-77
2022/07/31 10:27:52;;;;;;;12.90;9.50;;;;;;;25.25;56.77;94491.47;5008156;28;20247;-78
2022/07/31 10:30:22;;;;;;;10.65;8.50;;;;;;;25.32;56.01;94491.31;5005260;28;20225;-74
2022/07/31 10:32:49;;;;;;;13.40;9.52;;;;;;;25.64;54.83;94479.63;5012929;28;20249;-75
2022/07/31 10:35:18;;;;;;;11.82;8.82;;;;;;;25.77;53.71;94499.97;5000727;28;20201;-78
2022/07/31 10:37:53;;;;;;;11.27;8.35;;;;;;;25.34;54.86;94478.59;5013653;28;20283;-78
2022/07/31 10:40:26;;;;;;;10.57;8.25;;;;;;;25.17;55.69;94471.41;5012778;28;20678;-75
2022/07/31 10:43:01;;;;;;;11.88;8.32;;;;;;;24.82;56.39;94470.03;5017896;28;20274;-75
2022/07/31 10:45:30;;;;;;;11.40;8.55;;;;;;;24.89;55.81;94469.91;5015447;28;20189;-76
2022/07/31 10:47:59;;;;;;;7.75;5.93;;;;;;;25.15;54.26;94471.03;5002698;28;20815;-73
2022/07/31 10:50:28;;;;;;;9.32;7.22;;;;;;;25.09;52.63;94469.97;5010140;28;20699;-74
2022/07/31 10:52:55;;;;;;;10.77;7.45;;;;;;;25.18;54.00;94470.19;5006171;28;20263;-76
2022/07/31 10:55:25;;;;;;;9.73;7.63;;;;;;;25.65;54.24;94453.44;5013390;28;20259;-71
2022/07/31 10:57:52;;;;;;;9.77;7.47;;;;;;;25.78;52.33;94473.78;5001917;28;20219;-73
2022/07/31 11:00:21;;;;;;;9.10;6.75;;;;;;;25.70;52.17;94464.03;5006383;28;20201;-77
2022/07/31 11:02:49;;;;;;;11.05;7.80;;;;;;;25.67;52.76;94465.69;5005530;28;20299;-74
2022/07/31 11:05:21;;;;;;;9.07;6.90;;;;;;;25.74;52.50;94461.97;5012639;28;20264;-75
2022/07/31 11:07:59;;;;;;;8.50;6.90;;;;;;;25.97;52.52;94461.84;5013075;28;20681;-78
2022/07/31 11:10:26;;;;;;;8.80;7.25;;;;;;;26.19;51.88;94460.16;5000107;28;20213;-74
2022/07/31 11:12:59;;;;;;;8.55;6.55;;;;;;;25.82;52.31;94455.06;5015212;28;20749;-74
2022/07/31 11:15:26;;;;;;;8.77;6.88;;;;;;;25.64;52.03;94452.66;5012014;28;20197;-74
2022/07/31 11:17:55;;;;;;;9.90;7.22;;;;;;;25.67;51.12;94456.56;4999094;28;20206;-74
2022/07/31 11:20:25;;;;;;;8.63;6.65;;;;;;;25.96;51.44;94449.19;5003518;28;20228;-74
2022/07/31 11:23:00;;;;;;;9.10;7.15;;;;;;;26.42;51.00;94444.56;5009463;28;20631;-77
2022/07/31 11:25:29;;;;;;;9.35;7.00;;;;;;;25.56;52.67;94439.34;5012812;28;20886;-74
2022/07/31 11:27:58;;;;;;;10.30;7.30;;;;;;;25.14;54.75;94436.22;5012731;28;20273;-77
2022/07/31 11:30:24;;;;;;;10.27;7.53;;;;;;;24.97;54.07;94448.44;5012898;28;20631;-75
2022/07/31 11:32:53;;;;;;;9.50;7.13;;;;;;;24.95;54.79;94437.75;5007439;28;20209;-81
2022/07/31 11:35:31;;;;;;;8.88;6.95;;;;;;;25.11;54.40;94437.06;5004830;28;20271;-78